createdAt,value
2018-05-06T00:00:24.506Z,79.63
2018-05-06T00:01:30.713Z,80.21
2018-05-06T00:02:37.331Z,80.07
2018-05-06T00:03:43.559Z,79.84
2018-05-06T00:04:50.702Z,80.06
2018-05-06T00:05:56.970Z,80.25
2018-05-06T00:07:03.218Z,80.22
2018-05-06T00:08:09.498Z,80.33
2018-05-06T00:09:15.785Z,80.51
2018-05-06T00:10:22.914Z,80.65
2018-05-06T00:11:28.822Z,80.67
2018-05-06T00:12:35.053Z,80.46
2018-05-06T00:13:41.039Z,80.69
2018-05-06T00:14:47.274Z,80.12
2018-05-06T00:15:54.342Z,81.39
2018-05-06T00:17:00.590Z,80.31
2018-05-06T00:18:07.713Z,80.87
2018-05-06T00:19:15.979Z,80.70
2018-05-06T00:20:21.968Z,81.52
2018-05-06T00:21:28.196Z,81.26
2018-05-06T00:22:34.530Z,81.32
2018-05-06T00:23:40.832Z,81.37
2018-05-06T00:24:51.966Z,81.99
2018-05-06T00:25:58.155Z,81.70
2018-05-06T00:27:04.670Z,81.40
2018-05-06T00:28:10.918Z,81.56
2018-05-06T00:29:17.217Z,81.36
2018-05-06T00:30:23.387Z,81.88
2018-05-06T00:31:29.614Z,82.25
2018-05-06T00:32:35.533Z,82.63
2018-05-06T00:33:42.766Z,82.87
2018-05-06T00:34:52.446Z,83.28
2018-05-06T00:35:58.633Z,83.68
2018-05-06T00:37:04.859Z,83.96
2018-05-06T00:38:11.093Z,83.64
2018-05-06T00:39:17.380Z,85.09
2018-05-06T00:40:23.602Z,83.47
2018-05-06T00:41:30.428Z,83.02
2018-05-06T00:42:36.930Z,83.98
2018-05-06T00:43:43.191Z,83.47
2018-05-06T00:44:49.433Z,83.31
2018-05-06T00:45:55.918Z,83.43
2018-05-06T00:47:02.182Z,83.92
2018-05-06T00:48:08.458Z,84.46
2018-05-06T00:49:15.184Z,84.02
2018-05-06T00:50:22.162Z,84.27
2018-05-06T00:51:28.144Z,83.99
2018-05-06T00:52:34.352Z,83.71
2018-05-06T00:53:40.662Z,83.63
2018-05-06T00:54:46.873Z,83.93
2018-05-06T00:55:53.083Z,83.61
2018-05-06T00:56:59.067Z,83.49
2018-05-06T00:58:05.319Z,84.08
2018-05-06T00:59:11.755Z,84.16
2018-05-06T01:00:18.010Z,84.21
2018-05-06T01:01:23.457Z,84.64
2018-05-06T01:02:29.392Z,84.05
2018-05-06T01:03:35.765Z,83.93
2018-05-06T01:04:42.100Z,84.84
2018-05-06T01:05:48.143Z,84.68
2018-05-06T01:06:54.361Z,85.06
2018-05-06T01:08:00.568Z,85.57
2018-05-06T01:09:06.797Z,85.67
2018-05-06T01:10:13.703Z,85.52
2018-05-06T01:11:19.915Z,85.80
2018-05-06T01:12:26.098Z,85.65
2018-05-06T01:13:33.447Z,85.63
2018-05-06T01:14:39.676Z,85.54
2018-05-06T01:15:45.873Z,84.88
2018-05-06T01:16:52.179Z,85.17
2018-05-06T01:17:59.040Z,84.70
2018-05-06T01:19:04.972Z,85.88
2018-05-06T01:20:11.229Z,85.75
2018-05-06T01:21:17.210Z,85.51
2018-05-06T01:22:23.462Z,85.64
2018-05-06T01:23:29.679Z,85.67
2018-05-06T01:24:35.602Z,86.26
2018-05-06T01:25:42.520Z,86.62
2018-05-06T01:26:49.901Z,86.45
2018-05-06T01:27:56.142Z,85.99
2018-05-06T01:29:02.131Z,86.49
2018-05-06T01:30:08.341Z,85.90
2018-05-06T01:31:14.320Z,85.01
2018-05-06T01:32:20.302Z,86.51
2018-05-06T01:33:26.557Z,85.48
2018-05-06T01:34:32.783Z,85.88
2018-05-06T01:35:39.094Z,85.63
2018-05-06T01:36:45.284Z,86.02
2018-05-06T01:37:51.600Z,86.17
2018-05-06T01:38:58.355Z,86.37
2018-05-06T01:40:04.306Z,86.75
2018-05-06T01:41:11.126Z,86.10
2018-05-06T01:42:17.662Z,87.12
2018-05-06T01:43:23.962Z,86.09
2018-05-06T01:44:30.987Z,86.06
2018-05-06T01:45:37.207Z,87.51
2018-05-06T01:46:43.431Z,87.67
2018-05-06T01:47:50.380Z,87.14
2018-05-06T01:48:56.589Z,87.66
2018-05-06T01:50:02.758Z,87.65
2018-05-06T01:51:08.966Z,87.58
2018-05-06T01:52:15.172Z,88.26
2018-05-06T01:53:21.383Z,87.76
2018-05-06T01:54:28.284Z,88.47
2018-05-06T01:55:34.307Z,88.43
2018-05-06T01:56:40.511Z,88.30
2018-05-06T01:57:46.734Z,88.08
2018-05-06T01:58:53.005Z,88.51
2018-05-06T01:59:59.298Z,87.92
2018-05-06T02:01:05.463Z,88.99
2018-05-06T02:02:11.691Z,89.32
2018-05-06T02:03:17.875Z,89.36
2018-05-06T02:04:25.827Z,89.29
2018-05-06T02:05:32.300Z,89.82
2018-05-06T02:06:38.293Z,89.77
2018-05-06T02:07:45.347Z,90.04
2018-05-06T02:08:52.018Z,90.41
2018-05-06T02:10:00.803Z,90.34
2018-05-06T02:11:06.958Z,90.09
2018-05-06T02:12:13.180Z,90.46
2018-05-06T02:13:19.935Z,89.62
2018-05-06T02:14:26.167Z,89.24
2018-05-06T02:15:32.326Z,88.69
2018-05-06T02:16:38.559Z,89.93
2018-05-06T02:17:44.758Z,89.33
2018-05-06T02:18:51.031Z,88.97
2018-05-06T02:19:57.933Z,89.19
2018-05-06T02:21:04.111Z,89.56
2018-05-06T02:22:10.326Z,89.58
2018-05-06T02:23:16.534Z,89.84
2018-05-06T02:24:23.042Z,89.80
2018-05-06T02:25:29.290Z,89.03
2018-05-06T02:26:35.587Z,89.41
2018-05-06T02:27:42.794Z,89.13
2018-05-06T02:28:49.656Z,89.44
2018-05-06T02:29:55.942Z,90.04
2018-05-06T02:31:04.248Z,89.66
2018-05-06T02:32:11.875Z,90.17
2018-05-06T02:33:18.165Z,89.84
2018-05-06T02:34:24.135Z,89.79
2018-05-06T02:35:31.012Z,90.11
2018-05-06T02:36:37.320Z,89.91
2018-05-06T02:37:43.476Z,89.75
2018-05-06T02:38:49.687Z,89.81
2018-05-06T02:39:55.989Z,90.14
2018-05-06T02:41:02.232Z,90.34
2018-05-06T02:42:08.426Z,90.01
2018-05-06T02:43:14.668Z,90.26
2018-05-06T02:44:20.844Z,90.66
2018-05-06T02:45:27.091Z,89.81
2018-05-06T02:46:33.354Z,90.40
2018-05-06T02:47:39.601Z,90.09
2018-05-06T02:48:46.988Z,91.03
2018-05-06T02:49:53.772Z,90.90
2018-05-06T02:51:00.072Z,90.61
2018-05-06T02:52:06.030Z,90.78
2018-05-06T02:53:12.273Z,90.10
2018-05-06T02:54:18.475Z,90.73
2018-05-06T02:55:24.714Z,90.72
2018-05-06T02:56:31.209Z,91.17
2018-05-06T02:57:38.337Z,90.73
2018-05-06T02:58:44.659Z,90.96
2018-05-06T02:59:50.366Z,91.02
2018-05-06T03:00:56.591Z,90.24
2018-05-06T03:02:02.635Z,91.05
2018-05-06T03:03:08.854Z,90.74
2018-05-06T03:04:15.659Z,89.87
2018-05-06T03:05:23.517Z,90.44
2018-05-06T03:06:29.772Z,90.35
2018-05-06T03:07:35.986Z,90.44
2018-05-06T03:08:42.899Z,92.14
2018-05-06T03:09:49.679Z,90.82
2018-05-06T03:10:55.944Z,90.79
2018-05-06T03:12:02.032Z,91.54
2018-05-06T03:13:09.930Z,91.15
2018-05-06T03:14:19.945Z,92.80
2018-05-06T03:15:26.317Z,90.42
2018-05-06T03:16:32.365Z,91.62
2018-05-06T03:17:38.290Z,91.31
2018-05-06T03:18:44.504Z,91.74
2018-05-06T03:19:50.827Z,92.32
2018-05-06T03:20:57.970Z,91.77
2018-05-06T03:22:04.155Z,91.68
2018-05-06T03:23:10.354Z,91.24
2018-05-06T03:24:16.555Z,91.93
2018-05-06T03:25:22.910Z,91.18
2018-05-06T03:26:29.097Z,91.25
2018-05-06T03:27:35.318Z,91.26
2018-05-06T03:28:41.525Z,91.61
2018-05-06T03:29:47.746Z,91.00
2018-05-06T03:30:53.990Z,91.18
2018-05-06T03:32:00.257Z,91.68
2018-05-06T03:33:06.472Z,92.19
2018-05-06T03:34:14.102Z,92.38
2018-05-06T03:35:21.253Z,91.34
2018-05-06T03:36:27.554Z,90.69
2018-05-06T03:37:33.777Z,90.86
2018-05-06T03:38:39.782Z,91.02
2018-05-06T03:39:45.966Z,91.32
2018-05-06T03:40:52.216Z,91.48
2018-05-06T03:41:59.047Z,91.65
2018-05-06T03:43:06.153Z,91.91
2018-05-06T03:44:12.203Z,91.70
2018-05-06T03:45:18.431Z,90.86
2018-05-06T03:46:24.730Z,91.97
2018-05-06T03:47:30.970Z,92.05
2018-05-06T03:48:37.190Z,93.27
2018-05-06T03:49:43.350Z,92.14
2018-05-06T03:50:49.652Z,92.11
2018-05-06T03:51:56.008Z,91.11
2018-05-06T03:53:02.201Z,91.78
2018-05-06T03:54:09.350Z,91.14
2018-05-06T03:55:16.144Z,91.93
2018-05-06T03:58:22.821Z,92.67
2018-05-06T03:59:40.119Z,93.12
2018-05-06T04:00:49.087Z,92.53
2018-05-06T04:03:48.171Z,92.96
2018-05-06T04:04:54.471Z,92.90
2018-05-06T04:06:01.359Z,92.14
2018-05-06T04:07:07.694Z,92.68
2018-05-06T04:08:14.009Z,93.02
2018-05-06T04:09:20.354Z,92.11
2018-05-06T04:10:26.710Z,92.28
2018-05-06T04:11:32.967Z,92.61
2018-05-06T04:12:39.149Z,92.51
2018-05-06T04:13:46.259Z,93.11
2018-05-06T04:14:52.491Z,92.78
2018-05-06T04:15:59.571Z,92.67
2018-05-06T04:17:06.704Z,92.30
2018-05-06T04:18:13.462Z,92.87
2018-05-06T04:19:19.694Z,92.83
2018-05-06T04:20:25.885Z,92.74
2018-05-06T04:21:32.120Z,92.71
2018-05-06T04:22:38.288Z,92.98
2018-05-06T04:23:44.493Z,91.95
2018-05-06T04:24:50.817Z,92.14
2018-05-06T04:25:57.023Z,92.11
2018-05-06T04:27:03.281Z,92.46
2018-05-06T04:28:09.543Z,92.30
2018-05-06T04:29:16.399Z,91.42
2018-05-06T04:30:23.083Z,91.31
2018-05-06T04:31:29.347Z,91.38
2018-05-06T04:32:35.378Z,91.03
2018-05-06T04:33:43.146Z,91.11
2018-05-06T04:34:50.540Z,91.13
2018-05-06T04:35:56.832Z,90.63
2018-05-06T04:37:03.643Z,90.16
2018-05-06T04:38:09.870Z,90.36
2018-05-06T04:39:16.087Z,90.05
2018-05-06T04:40:22.039Z,90.34
2018-05-06T04:41:28.298Z,89.67
2018-05-06T04:42:35.338Z,89.41
2018-05-06T04:43:42.491Z,89.23
2018-05-06T04:44:49.578Z,88.91
2018-05-06T04:45:55.766Z,88.98
2018-05-06T04:47:02.062Z,89.10
2018-05-06T04:48:08.300Z,89.08
2018-05-06T04:49:14.509Z,88.92
2018-05-06T04:50:21.821Z,89.57
2018-05-06T04:51:28.181Z,87.85
2018-05-06T04:52:34.431Z,88.20
2018-05-06T04:53:40.669Z,88.03
2018-05-06T04:54:46.816Z,87.60
2018-05-06T04:55:52.730Z,87.99
2018-05-06T04:56:59.033Z,88.02
2018-05-06T04:58:04.963Z,87.54
2018-05-06T04:59:11.110Z,88.20
2018-05-06T05:00:17.307Z,87.42
2018-05-06T05:01:23.659Z,87.24
2018-05-06T05:02:29.943Z,86.88
2018-05-06T05:03:37.782Z,86.87
2018-05-06T05:04:43.969Z,86.28
2018-05-06T05:05:50.236Z,86.38
2018-05-06T05:06:56.515Z,86.34
2018-05-06T05:08:02.722Z,85.61
2018-05-06T05:09:09.577Z,85.39
2018-05-06T05:10:15.474Z,85.56
2018-05-06T05:11:22.578Z,85.22
2018-05-06T05:12:28.822Z,84.51
2018-05-06T05:13:35.105Z,85.46
2018-05-06T05:14:41.928Z,84.82
2018-05-06T05:15:48.127Z,84.38
2018-05-06T05:16:54.056Z,84.68
2018-05-06T05:18:00.348Z,84.20
2018-05-06T05:19:06.588Z,84.10
2018-05-06T05:20:12.629Z,84.38
2018-05-06T05:21:18.851Z,84.94
2018-05-06T05:22:25.094Z,84.45
2018-05-06T05:23:31.431Z,84.33
2018-05-06T05:24:38.280Z,84.92
2018-05-06T05:25:44.987Z,84.34
2018-05-06T05:26:51.945Z,84.66
2018-05-06T05:27:58.106Z,84.10
2018-05-06T05:29:04.642Z,83.72
2018-05-06T05:30:10.812Z,83.82
2018-05-06T05:31:17.015Z,82.50
2018-05-06T05:32:23.252Z,82.64
2018-05-06T05:33:29.535Z,81.88
2018-05-06T05:34:35.763Z,82.41
2018-05-06T05:35:41.994Z,82.78
2018-05-06T05:36:48.267Z,81.25
2018-05-06T05:37:54.509Z,82.64
2018-05-06T05:39:01.971Z,82.39
2018-05-06T05:40:07.963Z,81.14
2018-05-06T05:41:15.942Z,81.54
2018-05-06T05:42:22.203Z,82.27
2018-05-06T05:43:28.386Z,82.26
2018-05-06T05:44:35.497Z,82.01
2018-05-06T05:45:42.060Z,81.50
2018-05-06T05:46:48.367Z,81.56
2018-05-06T05:47:54.611Z,81.40
2018-05-06T05:49:02.241Z,81.69
2018-05-06T05:50:08.996Z,81.35
2018-05-06T05:51:15.729Z,81.10
2018-05-06T05:52:23.430Z,79.78
2018-05-06T05:53:30.182Z,79.81
2018-05-06T05:54:36.660Z,79.81
2018-05-06T05:55:43.123Z,79.13
2018-05-06T05:56:49.836Z,80.06
2018-05-06T05:57:56.211Z,80.97
2018-05-06T05:59:03.810Z,80.13
2018-05-06T06:00:11.289Z,80.94
2018-05-06T06:01:19.233Z,79.98
2018-05-06T06:02:27.581Z,79.05
2018-05-06T06:03:35.344Z,79.96
2018-05-06T06:04:42.589Z,78.91
2018-05-06T06:05:49.234Z,80.30
2018-05-06T06:06:56.124Z,79.67
2018-05-06T06:08:04.045Z,78.89
2018-05-06T06:09:14.861Z,79.60
2018-05-06T06:10:22.431Z,79.97
2018-05-06T06:11:32.145Z,79.28
2018-05-06T06:12:39.206Z,78.97
2018-05-06T06:13:45.723Z,77.73
2018-05-06T06:14:51.930Z,76.99
2018-05-06T06:15:58.130Z,77.07
2018-05-06T06:17:04.474Z,76.99
2018-05-06T06:18:10.662Z,76.94
2018-05-06T06:19:16.877Z,78.73
2018-05-06T06:20:23.925Z,77.68
2018-05-06T06:21:31.826Z,75.39
2018-05-06T06:22:41.763Z,75.60
2018-05-06T06:23:56.217Z,75.41
2018-05-06T06:25:04.685Z,76.12
2018-05-06T06:26:11.150Z,76.57
2018-05-06T06:27:17.541Z,77.22
2018-05-06T06:28:25.511Z,76.94
2018-05-06T06:29:32.235Z,76.56
2018-05-06T06:30:38.927Z,75.76
2018-05-06T06:31:46.236Z,75.91
2018-05-06T06:32:53.285Z,76.48
2018-05-06T06:33:59.715Z,75.39
2018-05-06T06:35:07.214Z,75.44
2018-05-06T06:36:14.958Z,75.27
2018-05-06T06:37:24.086Z,75.54
2018-05-06T06:38:31.731Z,76.34
2018-05-06T06:39:38.862Z,75.06
2018-05-06T06:40:45.987Z,74.93
2018-05-06T06:41:54.398Z,73.21
2018-05-06T06:43:01.629Z,73.50
2018-05-06T06:44:10.545Z,73.17
2018-05-06T06:45:17.990Z,73.26
2018-05-06T06:46:24.790Z,72.87
2018-05-06T06:47:31.892Z,73.19
2018-05-06T06:48:38.359Z,73.79
2018-05-06T06:49:45.306Z,74.75
2018-05-06T06:50:51.572Z,73.62
2018-05-06T06:51:58.284Z,73.92
2018-05-06T06:53:05.283Z,74.06
2018-05-06T06:54:11.648Z,73.92
2018-05-06T06:55:17.610Z,73.43
2018-05-06T06:56:24.200Z,74.59
2018-05-06T06:57:31.151Z,74.70
2018-05-06T06:58:37.426Z,73.89
2018-05-06T06:59:43.848Z,73.34
2018-05-06T07:00:50.118Z,74.55
2018-05-06T07:01:56.427Z,73.18
2018-05-06T07:03:02.642Z,74.31
2018-05-06T07:04:08.862Z,75.14
2018-05-06T07:05:19.850Z,73.14
2018-05-06T07:06:26.346Z,71.72
2018-05-06T07:07:32.592Z,70.48
2018-05-06T07:08:39.227Z,71.28
2018-05-06T07:09:45.510Z,71.22
2018-05-06T07:10:51.410Z,71.58
2018-05-06T07:11:57.438Z,71.58
2018-05-06T07:13:03.668Z,71.54
2018-05-06T07:14:10.613Z,70.27
2018-05-06T07:15:16.884Z,71.64
2018-05-06T07:16:23.192Z,72.59
2018-05-06T07:17:29.411Z,72.00
2018-05-06T07:18:35.740Z,70.37
2018-05-06T07:19:41.954Z,71.68
2018-05-06T07:20:50.373Z,71.73
2018-05-06T07:21:58.937Z,70.41
2018-05-06T07:23:07.375Z,71.05
2018-05-06T07:24:17.386Z,69.60
2018-05-06T07:25:24.867Z,70.04
2018-05-06T07:26:33.329Z,69.46
2018-05-06T07:27:39.821Z,68.01
2018-05-06T07:28:46.075Z,67.89
2018-05-06T07:29:53.338Z,67.50
2018-05-06T07:31:01.615Z,67.68
2018-05-06T07:32:09.455Z,68.26
2018-05-06T07:33:18.350Z,67.85
2018-05-06T07:34:26.700Z,67.73
2018-05-06T07:35:34.811Z,67.94
2018-05-06T07:36:42.461Z,65.80
2018-05-06T07:37:49.156Z,66.43
2018-05-06T07:38:55.231Z,67.59
2018-05-06T07:40:02.036Z,66.33
2018-05-06T07:41:08.965Z,66.08
2018-05-06T07:42:15.318Z,65.87
2018-05-06T07:43:21.819Z,68.06
2018-05-06T07:44:28.148Z,67.30
2018-05-06T07:45:34.392Z,67.06
2018-05-06T07:46:40.619Z,67.77
2018-05-06T07:47:51.103Z,65.54
2018-05-06T07:48:57.329Z,65.84
2018-05-06T07:50:03.725Z,66.21
2018-05-06T07:51:10.164Z,65.93
2018-05-06T07:52:16.385Z,66.63
2018-05-06T07:53:22.593Z,66.32
2018-05-06T07:54:28.827Z,64.33
2018-05-06T07:55:35.115Z,65.16
2018-05-06T07:56:41.331Z,63.01
2018-05-06T07:57:47.539Z,63.24
2018-05-06T07:58:53.777Z,61.78
2018-05-06T08:00:00.398Z,60.62
2018-05-06T08:02:19.336Z,61.13
2018-05-06T08:03:25.645Z,61.15
2018-05-06T08:04:31.647Z,61.49
2018-05-06T08:05:38.415Z,60.97
2018-05-06T08:06:44.685Z,61.26
2018-05-06T08:07:50.871Z,61.14
2018-05-06T08:08:58.962Z,59.60
2018-05-06T08:10:08.403Z,59.93
2018-05-06T08:11:15.111Z,60.91
2018-05-06T08:12:24.145Z,61.40
2018-05-06T08:13:31.019Z,61.37
2018-05-06T08:14:37.288Z,62.12
2018-05-06T08:15:43.602Z,58.66
2018-05-06T08:16:49.788Z,58.38
2018-05-06T08:17:55.991Z,57.62
2018-05-06T08:19:02.375Z,58.40
2018-05-06T08:20:09.317Z,58.05
2018-05-06T08:21:16.259Z,59.15
2018-05-06T08:22:22.934Z,60.77
2018-05-06T08:23:29.195Z,59.04
2018-05-06T08:24:35.431Z,56.77
2018-05-06T08:25:41.703Z,56.79
2018-05-06T08:26:47.906Z,56.00
2018-05-06T08:27:54.833Z,53.70
2018-05-06T08:29:01.054Z,54.77
2018-05-06T08:30:07.387Z,55.31
2018-05-06T08:31:13.723Z,56.38
2018-05-06T08:32:20.259Z,56.18
2018-05-06T08:33:26.607Z,55.73
2018-05-06T08:34:32.940Z,55.84
2018-05-06T08:35:39.224Z,55.94
2018-05-06T08:36:45.438Z,53.96
2018-05-06T08:37:51.834Z,54.58
2018-05-06T08:38:58.183Z,51.73
2018-05-06T08:40:03.795Z,53.12
2018-05-06T08:41:09.969Z,53.15
2018-05-06T08:42:16.382Z,52.64
2018-05-06T08:43:22.635Z,54.09
2018-05-06T08:44:28.905Z,53.97
2018-05-06T08:45:35.118Z,54.52
2018-05-06T08:46:41.311Z,54.48
2018-05-06T08:47:47.550Z,52.03
2018-05-06T08:48:53.851Z,51.92
2018-05-06T08:50:00.055Z,51.20
2018-05-06T08:51:06.025Z,53.13
2018-05-06T08:52:12.254Z,51.52
2018-05-06T08:53:18.486Z,50.41
2018-05-06T08:54:24.699Z,50.74
2018-05-06T08:55:30.921Z,49.84
2018-05-06T08:56:37.219Z,49.18
2018-05-06T08:57:43.990Z,50.00
2018-05-06T08:58:50.372Z,46.92
2018-05-06T08:59:56.696Z,46.98
2018-05-06T09:01:02.974Z,47.02
2018-05-06T09:02:09.872Z,47.94
2018-05-06T09:03:16.397Z,48.12
2018-05-06T09:04:22.723Z,46.92
2018-05-06T09:05:28.977Z,47.50
2018-05-06T09:06:35.259Z,48.02
2018-05-06T09:07:41.489Z,47.47
2018-05-06T09:08:47.784Z,46.16
2018-05-06T09:09:54.093Z,46.46
2018-05-06T09:11:00.297Z,46.40
2018-05-06T09:12:06.526Z,48.16
2018-05-06T09:13:14.072Z,47.05
2018-05-06T09:14:22.000Z,47.14
2018-05-06T09:15:28.325Z,48.71
2018-05-06T09:16:34.554Z,46.06
2018-05-06T09:17:40.827Z,45.88
2018-05-06T09:18:47.033Z,46.11
2018-05-06T09:19:53.292Z,46.27
2018-05-06T09:20:59.672Z,47.32
2018-05-06T09:22:05.872Z,46.29
2018-05-06T09:23:12.055Z,46.71
2018-05-06T09:24:18.283Z,48.81
2018-05-06T09:25:24.606Z,50.60
2018-05-06T09:26:30.907Z,46.74
2018-05-06T09:27:37.215Z,46.84
2018-05-06T09:28:43.718Z,45.59
2018-05-06T09:29:50.566Z,47.83
2018-05-06T09:30:56.591Z,47.68
2018-05-06T09:32:02.802Z,50.05
2018-05-06T09:33:09.088Z,46.83
2018-05-06T09:34:15.020Z,48.21
2018-05-06T09:35:22.241Z,47.51
2018-05-06T09:36:32.020Z,49.40
2018-05-06T09:37:40.298Z,47.98
2018-05-06T09:38:47.065Z,50.06
2018-05-06T09:39:53.311Z,47.20
2018-05-06T09:40:59.826Z,47.77
2018-05-06T09:42:06.195Z,47.04
2018-05-06T09:43:14.323Z,47.38
2018-05-06T09:44:21.902Z,47.63
2018-05-06T09:45:28.639Z,47.17
2018-05-06T09:46:34.873Z,48.22
2018-05-06T09:47:41.168Z,47.44
2018-05-06T09:48:47.462Z,48.16
2018-05-06T09:49:54.707Z,47.78
2018-05-06T09:51:00.962Z,47.30
2018-05-06T09:52:07.228Z,46.83
2018-05-06T09:53:13.673Z,46.67
2018-05-06T09:54:19.273Z,46.32
2018-05-06T09:55:25.261Z,48.35
2018-05-06T09:56:31.460Z,47.12
2018-05-06T09:57:37.756Z,46.99
2018-05-06T09:58:44.015Z,47.42
2018-05-06T09:59:50.934Z,46.39
2018-05-06T10:00:57.233Z,50.56
2018-05-06T10:02:03.530Z,47.33
2018-05-06T10:03:10.762Z,47.40
2018-05-06T10:04:16.976Z,47.02
2018-05-06T10:05:23.214Z,45.79
2018-05-06T10:06:29.570Z,45.07
2018-05-06T10:07:35.781Z,47.53
2018-05-06T10:08:42.004Z,45.37
2018-05-06T10:09:48.552Z,45.16
2018-05-06T10:10:54.783Z,45.99
2018-05-06T10:12:01.074Z,46.02
2018-05-06T10:13:07.248Z,44.64
2018-05-06T10:14:13.566Z,46.18
2018-05-06T10:15:19.833Z,47.18
2018-05-06T10:16:26.131Z,43.61
2018-05-06T10:17:32.416Z,43.45
2018-05-06T10:18:38.752Z,44.28
2018-05-06T10:19:45.078Z,45.28
2018-05-06T10:20:52.835Z,44.55
2018-05-06T10:21:58.807Z,45.02
2018-05-06T10:23:05.109Z,43.60
2018-05-06T10:24:11.333Z,44.13
2018-05-06T10:25:17.615Z,44.52
2018-05-06T10:26:23.870Z,46.50
2018-05-06T10:27:30.146Z,43.66
2018-05-06T10:28:36.469Z,44.27
2018-05-06T10:29:42.662Z,45.18
2018-05-06T10:30:48.965Z,45.29
2018-05-06T10:31:55.237Z,42.26
2018-05-06T10:33:01.474Z,43.44
2018-05-06T10:34:07.803Z,44.63
2018-05-06T10:35:16.240Z,42.28
2018-05-06T10:36:28.021Z,42.01
2018-05-06T10:37:34.228Z,43.46
2018-05-06T10:38:40.546Z,43.63
2018-05-06T10:39:46.740Z,43.42
2018-05-06T10:40:52.943Z,42.56
2018-05-06T10:41:59.162Z,42.50
2018-05-06T10:43:05.350Z,43.24
2018-05-06T10:44:11.685Z,43.67
2018-05-06T10:45:18.835Z,43.39
2018-05-06T10:46:25.459Z,43.84
2018-05-06T10:47:31.711Z,46.47
2018-05-06T10:48:37.943Z,43.08
2018-05-06T10:49:44.183Z,44.69
2018-05-06T10:50:51.075Z,44.02
2018-05-06T10:51:58.197Z,45.60
2018-05-06T10:53:05.805Z,43.91
2018-05-06T10:54:14.066Z,42.70
2018-05-06T10:55:20.933Z,42.27
2018-05-06T10:56:27.938Z,42.83
2018-05-06T10:57:34.723Z,42.29
2018-05-06T10:58:40.995Z,42.29
2018-05-06T10:59:47.231Z,42.34
2018-05-06T11:00:53.425Z,43.07
2018-05-06T11:01:59.650Z,43.10
2018-05-06T11:03:05.956Z,43.41
2018-05-06T11:04:12.152Z,41.96
2018-05-06T11:05:18.362Z,43.72
2018-05-06T11:06:24.590Z,43.39
2018-05-06T11:07:31.727Z,45.02
2018-05-06T11:08:38.450Z,42.89
2018-05-06T11:09:44.741Z,44.34
2018-05-06T11:10:51.137Z,43.43
2018-05-06T11:11:57.369Z,44.05
2018-05-06T11:13:03.608Z,44.04
2018-05-06T11:14:09.874Z,43.04
2018-05-06T11:15:16.123Z,42.83
2018-05-06T11:16:22.733Z,43.12
2018-05-06T11:17:30.359Z,43.30
2018-05-06T11:18:36.358Z,43.42
2018-05-06T11:19:42.367Z,43.01
2018-05-06T11:20:48.584Z,42.35
2018-05-06T11:21:54.906Z,42.53
2018-05-06T11:23:01.761Z,43.80
2018-05-06T11:24:08.118Z,43.88
2018-05-06T11:25:14.311Z,43.79
2018-05-06T11:26:20.614Z,43.26
2018-05-06T11:27:26.772Z,45.84
2018-05-06T11:28:33.049Z,44.40
2018-05-06T11:29:39.261Z,43.10
2018-05-06T11:30:45.475Z,42.38
2018-05-06T11:31:51.486Z,43.12
2018-05-06T11:32:58.659Z,45.55
2018-05-06T11:34:04.931Z,41.65
2018-05-06T11:35:10.926Z,42.42
2018-05-06T11:36:17.152Z,41.97
2018-05-06T11:37:23.373Z,43.28
2018-05-06T11:38:29.597Z,44.08
2018-05-06T11:39:35.879Z,43.39
2018-05-06T11:40:42.091Z,42.55
2018-05-06T11:41:48.333Z,42.00
2018-05-06T11:42:54.618Z,41.78
2018-05-06T11:44:01.014Z,42.23
2018-05-06T11:45:07.202Z,44.14
2018-05-06T11:46:13.445Z,42.01
2018-05-06T11:47:19.669Z,42.85
2018-05-06T11:48:25.945Z,43.11
2018-05-06T11:49:32.644Z,43.48
2018-05-06T11:50:38.910Z,42.49
2018-05-06T11:51:45.129Z,44.17
2018-05-06T11:52:51.456Z,42.69
2018-05-06T11:53:57.695Z,41.96
2018-05-06T11:55:03.961Z,42.96
2018-05-06T11:56:10.154Z,42.44
2018-05-06T11:57:16.396Z,43.93
2018-05-06T11:58:22.704Z,43.00
2018-05-06T11:59:29.574Z,42.41
2018-05-06T12:00:37.716Z,42.18
2018-05-06T12:01:43.967Z,42.95
2018-05-06T12:02:50.290Z,42.12
2018-05-06T12:03:57.475Z,44.01
2018-05-06T12:05:03.682Z,42.79
2018-05-06T12:06:10.076Z,44.04
2018-05-06T12:07:16.361Z,44.20
2018-05-06T12:08:22.553Z,41.63
2018-05-06T12:09:28.865Z,42.96
2018-05-06T12:10:35.090Z,43.37
2018-05-06T12:11:41.574Z,42.70
2018-05-06T12:12:47.915Z,42.78
2018-05-06T12:13:54.099Z,42.20
2018-05-06T12:15:00.416Z,42.18
2018-05-06T12:16:07.495Z,42.38
2018-05-06T12:17:13.777Z,42.63
2018-05-06T12:18:20.068Z,42.30
2018-05-06T12:19:26.310Z,43.20
2018-05-06T12:20:32.603Z,41.69
2018-05-06T12:21:41.709Z,43.22
2018-05-06T12:22:47.843Z,45.04
2018-05-06T12:23:55.545Z,42.35
2018-05-06T12:25:03.744Z,41.53
2018-05-06T12:26:09.967Z,41.85
2018-05-06T12:27:16.722Z,42.19
2018-05-06T12:28:23.240Z,41.70
2018-05-06T12:29:29.427Z,41.09
2018-05-06T12:30:37.927Z,41.48
2018-05-06T12:31:45.267Z,42.84
2018-05-06T12:32:51.538Z,40.40
2018-05-06T12:33:57.741Z,40.45
2018-05-06T12:35:03.967Z,40.96
2018-05-06T12:36:09.848Z,43.04
2018-05-06T12:37:16.689Z,41.26
2018-05-06T12:38:22.927Z,42.51
2018-05-06T12:39:29.212Z,40.37
2018-05-06T12:40:35.429Z,40.98
2018-05-06T12:41:41.377Z,42.95
2018-05-06T12:42:47.650Z,40.26
2018-05-06T12:43:53.980Z,42.79
2018-05-06T12:45:00.256Z,40.11
2018-05-06T12:46:06.502Z,41.19
2018-05-06T12:47:12.618Z,40.82
2018-05-06T12:48:19.008Z,40.79
2018-05-06T12:49:25.268Z,41.26
2018-05-06T12:50:31.651Z,40.03
2018-05-06T12:51:38.647Z,40.26
2018-05-06T12:52:44.969Z,40.99
2018-05-06T12:53:51.157Z,40.71
2018-05-06T12:54:57.476Z,40.48
2018-05-06T12:56:03.654Z,40.12
2018-05-06T12:57:09.875Z,40.44
2018-05-06T12:58:16.314Z,40.06
2018-05-06T12:59:22.614Z,40.38
2018-05-06T13:00:28.841Z,41.19
2018-05-06T13:01:36.029Z,40.48
2018-05-06T13:02:43.095Z,40.67
2018-05-06T13:03:49.300Z,42.89
2018-05-06T13:04:55.517Z,41.34
2018-05-06T13:06:01.792Z,39.64
2018-05-06T13:07:09.195Z,39.29
2018-05-06T13:08:23.951Z,39.04
2018-05-06T13:09:30.190Z,40.75
2018-05-06T13:10:36.691Z,39.66
2018-05-06T13:11:43.054Z,38.95
2018-05-06T13:12:49.226Z,39.14
2018-05-06T13:13:55.220Z,39.26
2018-05-06T13:15:01.408Z,39.90
2018-05-06T13:16:07.656Z,40.70
2018-05-06T13:17:13.932Z,39.65
2018-05-06T13:18:22.649Z,38.94
2018-05-06T13:19:29.702Z,40.47
2018-05-06T13:20:36.092Z,39.65
2018-05-06T13:21:42.363Z,39.52
2018-05-06T13:22:51.441Z,41.44
2018-05-06T13:24:02.032Z,41.47
2018-05-06T13:25:08.593Z,39.55
2018-05-06T13:26:14.872Z,39.79
2018-05-06T13:27:20.850Z,39.13
2018-05-06T13:28:27.282Z,39.28
2018-05-06T13:29:33.519Z,39.32
2018-05-06T13:30:39.717Z,41.39
2018-05-06T13:31:45.778Z,40.12
2018-05-06T13:32:52.364Z,39.98
2018-05-06T13:33:58.788Z,37.96
2018-05-06T13:35:08.464Z,39.23
2018-05-06T13:36:14.758Z,38.84
2018-05-06T13:37:20.970Z,38.42
2018-05-06T13:38:26.943Z,39.52
2018-05-06T13:39:33.202Z,40.94
2018-05-06T13:40:39.165Z,40.12
2018-05-06T13:41:45.399Z,41.03
2018-05-06T13:42:51.579Z,39.50
2018-05-06T13:43:57.842Z,39.53
2018-05-06T13:45:03.956Z,40.16
2018-05-06T13:46:10.004Z,39.96
2018-05-06T13:47:16.031Z,41.25
2018-05-06T13:48:21.995Z,40.17
2018-05-06T13:49:28.380Z,39.46
2018-05-06T13:50:34.696Z,39.20
2018-05-06T13:51:40.686Z,41.21
2018-05-06T13:52:46.984Z,40.73
2018-05-06T13:53:53.596Z,38.00
2018-05-06T13:54:59.751Z,38.12
2018-05-06T13:56:06.087Z,39.38
2018-05-06T13:57:12.105Z,39.04
2018-05-06T13:58:18.331Z,37.81
2018-05-06T13:59:24.810Z,38.66
2018-05-06T14:00:31.147Z,38.91
2018-05-06T14:01:37.380Z,39.70
2018-05-06T14:02:43.591Z,38.83
2018-05-06T14:03:49.920Z,39.14
2018-05-06T14:04:58.040Z,39.65
2018-05-06T14:06:04.206Z,40.09
2018-05-06T14:07:10.459Z,39.79
2018-05-06T14:08:16.693Z,40.89
2018-05-06T14:09:23.800Z,40.14
2018-05-06T14:10:30.595Z,41.75
2018-05-06T14:11:36.941Z,39.06
2018-05-06T14:12:43.283Z,40.74
2018-05-06T14:13:50.016Z,40.75
2018-05-06T14:14:56.320Z,39.53
2018-05-06T14:16:02.630Z,39.94
2018-05-06T14:17:09.057Z,40.12
2018-05-06T14:18:15.336Z,39.07
2018-05-06T14:19:21.571Z,39.42
2018-05-06T14:20:27.887Z,41.98
2018-05-06T14:21:34.337Z,39.80
2018-05-06T14:22:40.554Z,39.66